createdAt,value
2018-01-28T00:02:10.615Z,236.23
2018-01-28T00:04:36.563Z,91.15
2018-01-28T00:07:02.536Z,334.77
2018-01-28T00:09:28.469Z,138.98
2018-01-28T00:11:54.570Z,182.53
2018-01-28T00:14:20.552Z,288.17
2018-01-28T00:16:46.486Z,204.52
2018-01-28T00:19:12.483Z,89.00
2018-01-28T00:21:38.424Z,195.52
2018-01-28T00:24:04.375Z,94.53
2018-01-28T00:26:30.351Z,288.70
2018-01-28T00:28:56.287Z,68.32
2018-01-28T00:31:22.524Z,113.03
2018-01-28T00:33:48.459Z,30.12
2018-01-28T00:36:15.180Z,23.70
2018-01-28T00:38:41.121Z,26.27
2018-01-28T00:41:07.842Z,23.23
2018-01-28T00:43:33.777Z,25.95
2018-01-28T00:46:00.460Z,28.47
2018-01-28T00:48:26.542Z,28.40
2018-01-28T00:50:53.222Z,31.20
2018-01-28T00:53:19.209Z,27.52
2018-01-28T00:55:45.896Z,29.10
2018-01-28T00:58:11.868Z,30.37
2018-01-28T01:00:38.556Z,28.73
2018-01-28T01:03:04.500Z,29.98
2018-01-28T01:05:30.615Z,29.42
2018-01-28T01:07:56.569Z,28.20
2018-01-28T01:10:23.283Z,28.52
2018-01-28T01:12:49.212Z,32.38
2018-01-28T01:15:15.205Z,24.27
2018-01-28T01:17:41.179Z,24.85
2018-01-28T01:20:07.119Z,27.70
2018-01-28T01:22:33.199Z,28.23
2018-01-28T01:24:59.288Z,29.37
2018-01-28T01:27:25.222Z,25.50
2018-01-28T01:29:51.227Z,26.57
2018-01-28T01:32:17.180Z,27.25
2018-01-28T01:34:43.155Z,27.10
2018-01-28T01:37:09.097Z,27.62
2018-01-28T01:39:35.176Z,26.40
2018-01-28T01:42:01.856Z,26.95
2018-01-28T01:44:27.853Z,26.75
2018-01-28T01:46:54.533Z,29.10
2018-01-28T01:49:20.484Z,26.77
2018-01-28T01:51:46.467Z,25.80
2018-01-28T01:54:12.414Z,28.90
2018-01-28T01:56:38.524Z,26.55
2018-01-28T01:59:04.468Z,27.55
2018-01-28T02:01:30.463Z,27.77
2018-01-28T02:03:56.423Z,28.35
2018-01-28T02:06:22.370Z,30.35
2018-01-28T02:08:48.334Z,31.10
2018-01-28T02:11:14.278Z,31.17
2018-01-28T02:13:40.384Z,30.65
2018-01-28T02:16:06.329Z,36.85
2018-01-28T02:18:32.287Z,31.47
2018-01-28T02:20:58.240Z,28.30
2018-01-28T02:23:24.240Z,32.33
2018-01-28T02:25:50.344Z,32.28
2018-01-28T02:28:17.033Z,28.60
2018-01-28T02:30:43.136Z,32.97
2018-01-28T02:33:09.104Z,25.98
2018-01-28T02:35:35.084Z,28.77
2018-01-28T02:38:01.020Z,26.23
2018-01-28T02:40:26.975Z,31.67
2018-01-28T02:42:52.956Z,28.77
2018-01-28T02:45:18.904Z,26.92
2018-01-28T02:47:44.911Z,27.77
2018-01-28T02:50:10.835Z,27.13
2018-01-28T02:52:36.836Z,26.93
2018-01-28T02:55:02.765Z,28.77
2018-01-28T02:57:28.708Z,24.53
2018-01-28T02:59:54.685Z,29.57
2018-01-28T03:02:20.628Z,24.25
2018-01-28T03:04:46.712Z,27.90
2018-01-28T03:07:13.432Z,27.92
2018-01-28T03:09:39.411Z,24.52
2018-01-28T03:12:05.344Z,25.02
2018-01-28T03:14:31.321Z,23.53
2018-01-28T03:16:58.006Z,27.60
2018-01-28T03:19:23.960Z,25.83
2018-01-28T03:21:50.059Z,26.87
2018-01-28T03:24:16.162Z,25.30
2018-01-28T03:26:42.138Z,28.65
2018-01-28T03:29:08.071Z,22.73
2018-01-28T03:31:34.013Z,27.57
2018-01-28T03:34:00.804Z,27.15
2018-01-28T03:36:26.728Z,24.12
2018-01-28T03:38:52.807Z,22.37
2018-01-28T03:41:18.751Z,23.12
2018-01-28T03:43:44.703Z,21.87
2018-01-28T03:46:10.667Z,23.35
2018-01-28T03:48:36.651Z,19.95
2018-01-28T03:51:02.580Z,20.35
2018-01-28T03:53:28.515Z,20.90
2018-01-28T03:55:55.322Z,21.20
2018-01-28T03:58:21.267Z,24.92
2018-01-28T04:00:47.987Z,20.73
2018-01-28T04:03:13.940Z,20.23
2018-01-28T04:05:40.636Z,22.80
2018-01-28T04:08:06.592Z,19.08
2018-01-28T04:10:33.304Z,21.12
2018-01-28T04:12:59.379Z,19.60
2018-01-28T04:15:25.311Z,17.50
2018-01-28T04:17:51.280Z,17.80
2018-01-28T04:20:17.216Z,19.52
2018-01-28T04:22:43.188Z,17.43
2018-01-28T04:25:09.274Z,18.12
2018-01-28T04:27:35.955Z,18.90
2018-01-28T04:30:02.016Z,14.82
2018-01-28T04:32:27.958Z,15.00
2018-01-28T04:34:54.663Z,14.17
2018-01-28T04:37:20.596Z,16.33
2018-01-28T04:39:46.562Z,13.93
2018-01-28T04:42:12.495Z,14.30
2018-01-28T04:44:38.433Z,13.20
2018-01-28T04:47:04.509Z,14.20
2018-01-28T04:49:31.178Z,12.90
2018-01-28T04:51:57.156Z,13.27
2018-01-28T04:54:23.123Z,13.35
2018-01-28T04:56:49.095Z,11.63
2018-01-28T04:59:15.080Z,11.85
2018-01-28T05:01:41.073Z,12.05
2018-01-28T05:04:07.170Z,11.68
2018-01-28T05:06:33.892Z,11.55
2018-01-28T05:08:59.820Z,12.45
2018-01-28T05:11:33.451Z,11.03
2018-01-28T05:14:00.171Z,10.43
2018-01-28T05:16:26.137Z,11.05
2018-01-28T05:18:55.158Z,10.75
2018-01-28T05:21:21.316Z,9.82
2018-01-28T05:23:48.428Z,11.50
2018-01-28T05:26:15.975Z,9.68
2018-01-28T05:28:42.292Z,10.93
2018-01-28T05:31:08.223Z,8.95
2018-01-28T05:33:34.217Z,10.50
2018-01-28T05:36:00.152Z,9.15
2018-01-28T05:38:26.105Z,8.67
2018-01-28T05:40:52.254Z,10.10
2018-01-28T05:43:18.188Z,10.13
2018-01-28T05:45:44.143Z,10.10
2018-01-28T05:48:10.826Z,9.27
2018-01-28T05:50:36.811Z,9.75
2018-01-28T05:53:02.733Z,9.05
2018-01-28T05:55:28.659Z,11.57
2018-01-28T05:57:54.719Z,9.90
2018-01-28T06:00:20.657Z,9.10
2018-01-28T06:02:46.616Z,9.20
2018-01-28T06:05:12.563Z,9.60
2018-01-28T06:07:38.536Z,9.80
2018-01-28T06:10:05.226Z,10.38
2018-01-28T06:12:31.168Z,9.48
2018-01-28T06:14:57.265Z,8.30
2018-01-28T06:17:23.196Z,8.93
2018-01-28T06:19:49.163Z,9.13
2018-01-28T06:22:15.095Z,9.35
2018-01-28T06:24:41.169Z,8.90
2018-01-28T06:27:07.134Z,8.25
2018-01-28T06:29:33.816Z,8.70
2018-01-28T06:31:59.915Z,8.20
2018-01-28T06:34:25.853Z,9.80
2018-01-28T06:36:51.830Z,8.50
2018-01-28T06:39:17.797Z,7.93
2018-01-28T06:41:43.766Z,9.82
2018-01-28T06:44:09.723Z,9.85
2018-01-28T06:46:35.690Z,8.15
2018-01-28T06:49:01.797Z,8.10
2018-01-28T06:51:27.740Z,10.30
2018-01-28T06:53:53.733Z,10.43
2018-01-28T06:56:19.679Z,9.15
2018-01-28T06:58:45.631Z,8.60
2018-01-28T07:01:12.357Z,8.30
2018-01-28T07:03:38.299Z,8.80
2018-01-28T07:06:05.129Z,8.50
2018-01-28T07:08:31.056Z,8.63
2018-01-28T07:10:57.784Z,7.93
2018-01-28T07:13:23.731Z,9.90
2018-01-28T07:15:50.399Z,8.17
2018-01-28T07:18:16.355Z,8.95
2018-01-28T07:20:42.456Z,8.40
2018-01-28T07:23:08.432Z,9.75
2018-01-28T07:25:35.261Z,7.72
2018-01-28T07:28:01.235Z,7.45
2018-01-28T07:30:27.163Z,8.30
2018-01-28T07:32:53.159Z,7.20
2018-01-28T07:35:19.105Z,7.50
2018-01-28T07:37:45.053Z,7.97
2018-01-28T07:40:11.167Z,9.73
2018-01-28T07:42:37.738Z,7.25
2018-01-28T07:45:08.845Z,7.03
2018-01-28T07:47:36.001Z,6.68
2018-01-28T07:50:05.760Z,9.30
2018-01-28T07:52:37.277Z,8.07
2018-01-28T07:55:03.910Z,15.02
2018-01-28T07:57:35.659Z,13.73
2018-01-28T08:00:02.505Z,20.20
2018-01-28T08:02:29.504Z,86.20
2018-01-28T08:04:57.682Z,105.95
2018-01-28T08:07:28.772Z,29.87
2018-01-28T08:09:54.723Z,21.77
2018-01-28T08:12:31.903Z,14.60
2018-01-28T08:15:07.293Z,9.73
2018-01-28T08:17:44.844Z,10.23
2018-01-28T08:20:19.003Z,6.62
2018-01-28T08:23:01.606Z,6.07
2018-01-28T08:25:35.846Z,6.40
2018-01-28T08:28:09.945Z,6.28
2018-01-28T08:30:48.540Z,7.80
2018-01-28T08:33:14.733Z,6.35
2018-01-28T08:35:41.464Z,6.28
2018-01-28T08:38:07.411Z,6.80
2018-01-28T08:40:34.168Z,5.73
2018-01-28T08:43:00.092Z,5.80
2018-01-28T08:45:26.125Z,6.03
2018-01-28T08:47:52.182Z,5.45
2018-01-28T08:50:18.126Z,5.25
2018-01-28T08:52:44.862Z,5.17
2018-01-28T08:55:10.837Z,5.00
2018-01-28T08:57:36.832Z,6.12
2018-01-28T09:00:03.407Z,4.70
2018-01-28T09:02:38.569Z,5.10
2018-01-28T09:05:04.665Z,6.47
2018-01-28T09:07:32.839Z,4.87
2018-01-28T09:09:59.552Z,5.07
2018-01-28T09:12:25.507Z,4.85
2018-01-28T09:14:51.493Z,5.30
2018-01-28T09:17:17.469Z,4.97
2018-01-28T09:19:43.613Z,6.05
2018-01-28T09:22:10.306Z,6.25
2018-01-28T09:24:36.446Z,4.87
2018-01-28T09:27:02.450Z,5.10
2018-01-28T09:29:28.435Z,5.70
2018-01-28T09:31:54.432Z,5.87
2018-01-28T09:34:20.375Z,4.47
2018-01-28T09:36:47.089Z,5.07
2018-01-28T09:39:13.742Z,3.90
2018-01-28T09:41:40.487Z,6.25
2018-01-28T09:44:07.487Z,5.03
2018-01-28T09:46:33.522Z,4.37
2018-01-28T09:49:03.329Z,3.80
2018-01-28T09:51:29.345Z,3.90
2018-01-28T09:53:55.413Z,3.70
2018-01-28T09:56:22.481Z,3.90
2018-01-28T09:58:48.702Z,3.30
2018-01-28T10:01:15.476Z,3.50
2018-01-28T10:03:41.502Z,5.70
2018-01-28T10:06:07.549Z,4.30
2018-01-28T10:08:33.587Z,3.60
2018-01-28T10:10:59.578Z,3.62
2018-01-28T10:13:25.742Z,3.55
2018-01-28T10:15:52.747Z,3.15
2018-01-28T10:18:20.039Z,4.43
2018-01-28T10:20:46.953Z,2.85
2018-01-28T10:23:13.777Z,3.95
2018-01-28T10:25:39.951Z,2.55
2018-01-28T10:28:08.411Z,2.90
2018-01-28T10:30:34.820Z,2.95
2018-01-28T10:33:00.859Z,2.90
2018-01-28T10:35:27.105Z,2.90
2018-01-28T10:37:53.974Z,2.40
2018-01-28T10:40:20.068Z,3.65
2018-01-28T10:42:48.020Z,2.95
2018-01-28T10:45:14.213Z,2.47
2018-01-28T10:47:40.813Z,3.15
2018-01-28T10:50:07.943Z,2.50
2018-01-28T10:52:34.235Z,2.80
2018-01-28T10:55:00.470Z,3.10
2018-01-28T10:57:26.974Z,2.50
2018-01-28T10:59:54.051Z,3.15
2018-01-28T11:02:21.259Z,2.42
2018-01-28T11:04:47.678Z,2.33
2018-01-28T11:07:13.985Z,2.97
2018-01-28T11:09:41.930Z,2.30
2018-01-28T11:12:08.838Z,3.17
2018-01-28T11:14:36.623Z,2.00
2018-01-28T11:17:02.674Z,2.20
2018-01-28T11:19:28.989Z,2.00
2018-01-28T11:21:56.927Z,3.00
2018-01-28T11:24:26.160Z,2.53
2018-01-28T11:26:55.234Z,2.65
2018-01-28T11:29:21.268Z,1.92
2018-01-28T11:31:48.744Z,3.03
2018-01-28T11:34:15.226Z,2.50
2018-01-28T11:36:41.608Z,2.92
2018-01-28T11:39:09.672Z,2.65
2018-01-28T11:41:35.913Z,3.78
2018-01-28T11:44:02.773Z,2.90
2018-01-28T11:46:31.454Z,2.72
2018-01-28T11:48:58.405Z,2.47
2018-01-28T11:51:24.661Z,5.72
2018-01-28T11:53:51.551Z,2.62
2018-01-28T11:56:17.524Z,2.22
2018-01-28T11:58:43.807Z,2.33
2018-01-28T12:01:11.804Z,2.67
2018-01-28T12:03:39.855Z,2.40
2018-01-28T12:06:06.784Z,2.47
2018-01-28T12:08:34.757Z,2.50
2018-01-28T12:11:02.145Z,2.28
2018-01-28T12:13:34.221Z,2.42
2018-01-28T12:16:11.183Z,2.80
2018-01-28T12:18:38.491Z,1.80
2018-01-28T12:21:06.361Z,8.98
2018-01-28T12:23:32.612Z,6.07
2018-01-28T12:25:58.909Z,2.08
2018-01-28T12:28:26.109Z,2.22
2018-01-28T12:30:52.105Z,2.80
2018-01-28T12:33:18.112Z,2.87
2018-01-28T12:35:44.486Z,2.20
2018-01-28T12:38:10.540Z,2.25
2018-01-28T12:40:37.874Z,2.08
2018-01-28T12:43:06.179Z,2.03
2018-01-28T12:45:35.709Z,2.55
2018-01-28T12:48:02.317Z,2.25
2018-01-28T12:50:28.326Z,2.00
2018-01-28T12:52:57.684Z,2.10
2018-01-28T12:55:25.257Z,3.37
2018-01-28T12:57:54.833Z,2.72
2018-01-28T13:00:23.136Z,2.50
2018-01-28T13:02:52.841Z,2.00
2018-01-28T13:05:22.467Z,2.72
2018-01-28T13:07:53.604Z,2.47
2018-01-28T13:10:27.109Z,2.45
2018-01-28T13:12:54.513Z,2.95
2018-01-28T13:15:24.305Z,2.00
2018-01-28T13:17:55.360Z,2.08
2018-01-28T13:20:23.675Z,2.10
2018-01-28T13:22:54.889Z,1.85
2018-01-28T13:25:25.452Z,2.30
2018-01-28T13:27:53.679Z,2.08
2018-01-28T13:30:27.872Z,3.97
2018-01-28T13:32:55.616Z,1.73
2018-01-28T13:35:24.809Z,1.83
2018-01-28T13:37:54.565Z,2.00
2018-01-28T13:40:23.082Z,1.75
2018-01-28T13:42:51.385Z,1.80
2018-01-28T13:45:21.352Z,1.80
2018-01-28T13:47:51.511Z,1.67
2018-01-28T13:50:19.660Z,1.85
2018-01-28T13:52:49.702Z,1.67
2018-01-28T13:55:17.340Z,1.98
2018-01-28T13:57:44.426Z,2.15
2018-01-28T14:00:14.536Z,1.80
2018-01-28T14:02:42.864Z,1.62
2018-01-28T14:05:12.831Z,2.00
2018-01-28T14:07:41.439Z,2.00
2018-01-28T14:10:11.079Z,1.92
2018-01-28T14:12:40.633Z,1.90
2018-01-28T14:15:09.416Z,1.80
2018-01-28T14:17:37.558Z,1.52
2018-01-28T14:20:06.768Z,1.87
2018-01-28T14:22:34.846Z,2.92
2018-01-28T14:25:03.236Z,2.12
2018-01-28T14:27:32.422Z,2.42
2018-01-28T14:30:01.805Z,1.83
2018-01-28T14:32:30.399Z,3.35
2018-01-28T14:34:58.602Z,1.70
2018-01-28T14:37:27.098Z,1.83
2018-01-28T14:39:56.788Z,2.00
2018-01-28T14:42:24.756Z,1.70
2018-01-28T14:44:52.363Z,1.90
2018-01-28T14:47:19.438Z,1.55
2018-01-28T14:49:46.891Z,1.80
2018-01-28T14:52:15.906Z,1.77
2018-01-28T14:54:44.983Z,1.60
2018-01-28T14:57:15.028Z,2.03
2018-01-28T14:59:42.587Z,1.70
2018-01-28T15:02:11.584Z,21.95
2018-01-28T15:04:58.794Z,20.17
2018-01-28T15:07:30.878Z,39.42
2018-01-28T15:09:59.150Z,11.32
2018-01-28T15:12:28.549Z,2.00
2018-01-28T15:14:57.045Z,3.22
2018-01-28T15:17:25.205Z,2.28
2018-01-28T15:37:36.274Z,2.58
2018-01-28T15:40:02.246Z,9.43
2018-01-28T15:42:28.707Z,5.20
2018-01-28T15:44:55.920Z,3.00
2018-01-28T19:11:34.453Z,8.98
2018-01-28T19:14:00.456Z,12.60
2018-01-28T19:16:26.417Z,9.52
2018-01-28T19:19:36.720Z,9.95
2018-01-28T19:22:02.956Z,6.82
2018-01-28T19:24:28.962Z,9.93
2018-01-28T19:26:54.935Z,7.25
2018-01-28T19:29:20.924Z,6.68
2018-01-28T19:31:46.920Z,6.37
2018-01-28T19:34:13.759Z,5.97
2018-01-28T19:36:40.466Z,6.78
2018-01-28T19:39:06.466Z,7.68
2018-01-28T19:41:32.443Z,7.10
2018-01-28T19:43:59.167Z,7.45
2018-01-28T19:46:25.928Z,7.00
2018-01-28T19:48:52.637Z,6.87
2018-01-28T19:51:18.742Z,6.37
2018-01-28T19:53:44.715Z,6.75
2018-01-28T19:56:11.436Z,8.35
2018-01-28T19:58:37.403Z,9.10
2018-01-28T20:01:03.367Z,9.57
2018-01-28T20:03:29.353Z,7.80
2018-01-28T20:05:55.491Z,7.78
2018-01-28T20:08:21.477Z,7.15
2018-01-28T20:10:47.473Z,8.75
2018-01-28T20:13:13.423Z,9.00
2018-01-28T20:15:39.423Z,9.20
2018-01-28T20:18:06.104Z,11.45
2018-01-28T20:20:32.085Z,13.82
2018-01-28T20:23:07.913Z,11.57
2018-01-28T20:25:41.902Z,10.10
2018-01-28T20:28:15.405Z,10.57
2018-01-28T20:30:49.016Z,9.27
2018-01-28T20:33:38.619Z,9.98
2018-01-28T20:36:28.542Z,6.80
2018-01-28T20:39:18.523Z,7.07
2018-01-28T20:42:08.665Z,6.78
2018-01-28T20:44:58.157Z,6.75
2018-01-28T20:47:48.462Z,6.60
2018-01-28T20:50:38.195Z,8.15
2018-01-28T20:53:27.432Z,9.07
2018-01-28T20:56:16.525Z,7.35
2018-01-28T20:59:06.139Z,6.12
2018-01-28T21:01:57.073Z,5.60
2018-01-28T21:04:47.588Z,7.03
2018-01-28T21:07:37.387Z,6.60
2018-01-28T21:10:27.550Z,6.20
2018-01-28T21:13:16.861Z,5.75
2018-01-28T21:16:06.438Z,4.87
2018-01-28T21:18:32.702Z,5.60
2018-01-28T21:20:59.395Z,8.23
2018-01-28T21:23:25.350Z,5.95
2018-01-28T21:25:52.093Z,6.33
2018-01-28T21:28:18.789Z,7.22
2018-01-28T21:30:44.783Z,6.35
2018-01-28T21:33:10.959Z,7.20
2018-01-28T21:35:37.009Z,7.68
2018-01-28T21:38:03.680Z,8.18
2018-01-28T21:40:29.675Z,8.95
2018-01-28T21:42:56.422Z,8.02
2018-01-28T21:45:22.392Z,8.82
2018-01-28T21:47:48.504Z,8.75
2018-01-28T21:50:14.436Z,9.35
2018-01-28T21:52:40.385Z,9.27
2018-01-28T21:55:06.370Z,7.70
2018-01-28T21:57:32.331Z,7.60
2018-01-28T21:59:59.055Z,6.70
2018-01-28T22:02:25.004Z,6.32
2018-01-28T22:04:51.854Z,6.70
2018-01-28T22:07:17.793Z,5.22
2018-01-28T22:09:43.728Z,5.10
2018-01-28T22:12:09.717Z,6.27
2018-01-28T22:14:35.668Z,6.53
2018-01-28T22:17:01.660Z,6.17
2018-01-28T22:19:28.348Z,5.60
2018-01-28T22:21:54.303Z,8.35
2018-01-28T22:24:20.299Z,7.20
2018-01-28T22:26:46.260Z,6.50
2018-01-28T22:29:13.136Z,6.50
2018-01-28T22:31:39.068Z,6.30
2018-01-28T22:34:05.016Z,5.70
2018-01-28T22:36:31.013Z,4.60
2018-01-28T22:38:56.983Z,4.55
2018-01-28T22:41:23.683Z,5.00
2018-01-28T22:43:49.647Z,4.37
2018-01-28T22:46:16.348Z,4.00
2018-01-28T22:48:42.462Z,4.82
2018-01-28T22:51:08.411Z,4.35
2018-01-28T22:53:34.457Z,4.30
2018-01-28T22:56:01.147Z,7.78
2018-01-28T22:58:27.102Z,4.07
2018-01-28T23:00:53.067Z,4.13
2018-01-28T23:03:19.023Z,4.72
2018-01-28T23:05:44.991Z,4.40
2018-01-28T23:08:11.685Z,4.47
2018-01-28T23:10:37.804Z,4.78
2018-01-28T23:13:03.747Z,3.60
2018-01-28T23:15:29.691Z,4.40
2018-01-28T23:17:56.420Z,4.60
2018-01-28T23:20:23.104Z,4.12
2018-01-28T23:22:49.048Z,4.82
2018-01-28T23:25:15.139Z,4.30
2018-01-28T23:27:41.096Z,4.12
2018-01-28T23:30:07.159Z,4.43
2018-01-28T23:32:33.844Z,4.68
2018-01-28T23:34:59.822Z,5.07
2018-01-28T23:37:25.800Z,4.20
2018-01-28T23:39:51.770Z,4.53
2018-01-28T23:42:17.714Z,4.80
2018-01-28T23:44:43.659Z,4.50
2018-01-28T23:47:09.799Z,4.23
2018-01-28T23:49:35.765Z,3.70
2018-01-28T23:52:02.435Z,4.32
2018-01-28T23:54:28.389Z,4.80
2018-01-28T23:56:54.455Z,4.80
2018-01-28T23:59:20.402Z,5.00
